EDT,Max TemperatureF,Mean TemperatureF,Min TemperatureF,Max Dew PointF,MeanDew PointF,Min DewpointF,Max Humidity, Mean Humidity, Min Humidity, Max Sea Level PressureIn, Mean Sea Level PressureIn, Min Sea Level PressureIn, Max VisibilityMiles, Mean VisibilityMiles, Min VisibilityMiles, Max Wind SpeedMPH, Mean Wind SpeedMPH, Max Gust SpeedMPH,PrecipitationIn, CloudCover, Events, WindDirDegrees
2013-8-1,77,70,62,66,64,60,100,82,64,30.01,29.90,29.84,10,7,1,10,2,16,0.29,6,Rain,156
2013-8-2,83,74,65,66,64,57,100,72,43,29.89,29.84,29.79,10,7,0,16,4,22,T,5,Fog-Rain,232
2013-8-3,80,71,61,65,62,57,93,74,54,29.88,29.85,29.80,10,10,8,13,6,20,0.01,2,Rain,227
2013-8-4,79,67,54,61,57,51,97,70,42,29.96,29.88,29.83,10,8,2,25,3,31,0.11,2,Rain,287
2013-8-5,78,64,50,55,50,45,100,66,31,30.05,30.01,29.96,10,10,10,14,3,20,0.01,0,,337
2013-8-6,80,65,50,57,53,48,100,69,37,30.11,30.08,30.04,10,10,10,10,2,15,0.00,2,,145
2013-8-7,76,68,59,66,61,57,93,79,64,30.14,30.10,30.04,10,10,10,12,4,17,0.01,6,Rain,155
2013-8-8,84,78,71,71,68,66,87,75,63,30.04,30.01,29.98,10,10,10,13,5,17,T,6,Rain,168
2013-8-9,83,77,71,75,72,70,100,87,74,29.99,29.86,29.77,10,5,0,16,4,20,5.17,7,Fog-Rain-Thunderstorm,179
2013-8-10,84,72,59,70,62,53,100,69,37,30.05,29.93,29.85,10,6,0,16,5,23,0.00,1,Fog,273
2013-8-11,79,66,53,62,56,51,93,70,46,30.13,30.07,30.00,10,10,10,12,2,15,0.00,1,,237
2013-8-12,82,71,59,64,60,56,97,70,42,30.02,29.97,29.90,10,10,10,9,1,14,0.00,1,,237
2013-8-13,77,71,65,70,67,63,97,83,69,29.90,29.76,29.67,10,6,2,23,2,35,0.27,6,Rain-Thunderstorm,35
2013-8-14,75,65,54,65,54,49,93,69,44,30.02,29.84,29.75,10,10,6,18,6,23,0.00,3,,305
2013-8-15,77,63,49,57,52,48,96,67,38,30.13,30.08,30.04,10,10,10,13,2,20,0.00,1,,284
2013-8-16,79,66,53,59,54,51,93,66,39,30.19,30.14,30.12,10,10,10,8,1,,0.00,1,,247
2013-8-17,81,67,53,63,57,51,93,65,36,30.28,30.24,30.20,10,10,9,8,1,12,0.00,1,,7
2013-8-18,76,68,59,66,61,57,97,83,68,30.26,30.20,30.11,10,9,6,5,0,8,T,1,Rain,330
2013-8-19,79,70,61,65,63,60,100,79,58,30.10,30.05,30.00,10,9,5,10,2,15,T,0,Rain,223
2013-8-20,85,72,58,67,61,57,97,70,43,30.12,30.07,30.03,10,7,0,7,0,10,0.00,0,Fog,255
2013-8-21,87,73,58,67,62,57,100,71,42,30.18,30.12,30.03,10,6,2,9,1,14,0.00,1,,230
2013-8-22,83,74,65,70,67,63,93,78,63,30.04,29.94,29.84,10,7,1,12,3,18,T,1,Rain-Thunderstorm,176
2013-8-23,80,69,57,68,61,51,100,71,42,30.13,29.95,29.87,10,5,0,16,5,23,0.00,1,Fog,10
2013-8-24,78,65,52,59,53,50,93,66,39,30.34,30.27,30.16,10,10,10,10,2,21,0.00,0,,6
2013-8-25,82,66,49,59,54,49,100,70,39,30.40,30.30,30.20,10,9,2,12,2,17,0.00,1,,206
2013-8-26,78,71,64,70,64,56,97,79,61,30.20,30.03,29.89,10,8,2,10,3,14,0.00,6,Rain,199
2013-8-27,84,76,68,70,68,66,97,76,55,29.91,29.86,29.80,10,8,2,14,4,20,1.09,6,Rain,357
2013-8-28,86,75,64,70,66,63,100,81,61,29.89,29.87,29.83,10,6,0,17,1,23,0.00,4,Fog,250
2013-8-29,80,72,64,69,65,63,100,81,62,30.02,29.97,29.90,10,8,5,10,2,16,0.00,6,,55
2013-8-30,84,76,67,70,66,64,93,72,51,30.02,29.93,29.82,10,10,8,13,3,17,0.00,4,,185
2013-8-31,83,77,70,74,71,66,100,85,69,29.83,29.80,29.77,10,7,2,12,3,17,0.10,5,Rain-Thunderstorm,194